Time;durP1;ratioP1;P1;durP2;ratioP2;P2;SDS_P1;SDS_P2;PMS_P1;PMS_P2;Temp;Humidity;BMP_temperature;BMP_pressure;BME280_temperature;BME280_humidity;BME280_pressure;Samples;Min_cycle;Max_cycle;Signal;HPM_P1;HPM_P2
2023/03/07 00:01:31;;;;;;;3.70;2.35;;;;;;;5.98;100.00;99592.56;5064178;28;20362;-69
2023/03/07 00:03:57;;;;;;;4.68;1.77;;;;;;;6.01;100.00;99591.50;5063634;28;20036;-69
2023/03/07 00:06:23;;;;;;;3.20;1.83;;;;;;;6.02;100.00;99592.31;5059099;28;20036;-69
2023/03/07 00:08:51;;;;;;;4.45;2.13;;;;;;;6.03;100.00;99589.59;5066871;28;20732;-69
2023/03/07 00:11:17;;;;;;;3.83;2.00;;;;;;;6.06;100.00;99584.13;5060586;28;20036;-69
2023/03/07 00:13:42;;;;;;;3.05;1.60;;;;;;;6.00;100.00;99592.44;5050280;28;20044;-69
2023/03/07 00:16:13;;;;;;;2.63;1.30;;;;;;;5.89;100.00;99588.22;5060992;28;20483;-69
2023/03/07 00:18:40;;;;;;;1.77;1.00;;;;;;;5.86;100.00;99582.47;5067046;28;20029;-69
2023/03/07 00:21:08;;;;;;;1.40;0.70;;;;;;;5.84;100.00;99581.78;5069990;28;20044;-69
2023/03/07 00:23:35;;;;;;;1.83;0.82;;;;;;;5.85;100.00;99579.06;5069492;28;20031;-69
2023/03/07 00:26:03;;;;;;;1.75;0.70;;;;;;;5.85;100.00;99583.41;5066412;28;20119;-69
2023/03/07 00:28:29;;;;;;;3.95;1.00;;;;;;;5.82;100.00;99575.94;5069299;28;20071;-69
2023/03/07 00:31:01;;;;;;;4.13;1.20;;;;;;;5.84;100.00;99580.00;5046054;28;20056;-69
2023/03/07 00:33:26;;;;;;;6.57;1.63;;;;;;;5.92;100.00;99576.78;5061915;28;20116;-69
2023/03/07 00:35:57;;;;;;;3.80;1.75;;;;;;;5.93;100.00;99575.84;5063606;28;20040;-69
2023/03/07 00:38:23;;;;;;;4.60;1.60;;;;;;;5.96;100.00;99567.81;5067734;28;20067;-69
2023/03/07 00:41:05;;;;;;;4.38;2.35;;;;;;;5.97;100.00;99561.69;5070111;28;20041;-70
2023/03/07 00:43:32;;;;;;;4.22;2.10;;;;;;;6.00;100.00;99566.59;5066386;28;20067;-69
2023/03/07 00:45:57;;;;;;;4.05;2.58;;;;;;;6.03;100.00;99571.47;5063840;28;20024;-69
2023/03/07 00:48:24;;;;;;;4.70;2.13;;;;;;;6.03;100.00;99555.97;5064302;28;20040;-69
2023/03/07 00:50:50;;;;;;;5.35;2.47;;;;;;;6.03;100.00;99561.13;5064102;28;20484;-69
2023/03/07 00:53:16;;;;;;;4.90;2.30;;;;;;;6.08;100.00;99558.16;5062602;28;20036;-69
2023/03/07 00:55:52;;;;;;;3.42;2.65;;;;;;;6.08;100.00;99553.78;5066312;28;20488;-69
2023/03/07 00:58:18;;;;;;;3.67;2.55;;;;;;;6.06;100.00;99558.28;5065104;28;20052;-69
2023/03/07 01:00:43;;;;;;;5.32;2.65;;;;;;;6.04;100.00;99556.78;5068891;28;20035;-69
2023/03/07 01:03:09;;;;;;;5.43;3.70;;;;;;;6.05;100.00;99558.41;5065745;28;20021;-69
2023/03/07 01:05:38;;;;;;;6.80;3.47;;;;;;;6.05;100.00;99555.84;5058954;28;20090;-69
2023/03/07 01:08:03;;;;;;;5.45;3.47;;;;;;;6.07;100.00;99557.31;5059756;28;20142;-69
2023/03/07 01:10:31;;;;;;;8.45;3.78;;;;;;;6.06;100.00;99563.44;5064776;28;20540;-69
2023/03/07 01:12:57;;;;;;;7.75;3.97;;;;;;;6.05;100.00;99553.25;5065791;28;20504;-70
2023/03/07 01:15:23;;;;;;;5.68;3.85;;;;;;;6.04;100.00;99549.84;5067887;28;20039;-69
2023/03/07 01:17:48;;;;;;;9.55;4.50;;;;;;;6.07;100.00;99548.75;5060386;28;20582;-69
2023/03/07 01:20:14;;;;;;;9.52;4.05;;;;;;;6.02;100.00;99546.56;5071174;28;20115;-69
2023/03/07 01:22:39;;;;;;;6.95;4.28;;;;;;;6.04;100.00;99543.84;5068286;28;20036;-69
2023/03/07 01:25:05;;;;;;;7.53;4.15;;;;;;;6.01;100.00;99547.53;5068195;28;20028;-70
2023/03/07 01:27:30;;;;;;;6.95;4.35;;;;;;;5.98;100.00;99545.22;5067618;28;20146;-70
2023/03/07 01:29:56;;;;;;;6.60;4.45;;;;;;;5.98;100.00;99537.47;5068348;28;20038;-70
2023/03/07 01:32:21;;;;;;;8.90;4.15;;;;;;;5.97;100.00;99541.00;5067538;28;20029;-69
2023/03/07 01:34:46;;;;;;;6.47;3.63;;;;;;;5.96;100.00;99541.94;5061840;28;20028;-70
2023/03/07 01:37:12;;;;;;;6.85;3.75;;;;;;;5.98;100.00;99538.28;5065425;28;20123;-70
2023/03/07 01:39:37;;;;;;;5.55;3.22;;;;;;;5.99;100.00;99537.31;5066763;28;20472;-70
2023/03/07 01:42:03;;;;;;;6.63;3.78;;;;;;;5.99;100.00;99536.50;5064733;28;20109;-70
2023/03/07 01:44:29;;;;;;;6.53;4.13;;;;;;;5.99;100.00;99536.50;5067638;28;20074;-70
2023/03/07 01:46:59;;;;;;;7.63;4.30;;;;;;;5.99;100.00;99532.16;5063783;28;20043;-70
2023/03/07 01:49:30;;;;;;;6.18;3.60;;;;;;;6.00;100.00;99535.56;5067143;28;20138;-70
2023/03/07 01:52:06;;;;;;;7.68;4.53;;;;;;;5.96;100.00;99529.03;5055670;28;20047;-70
2023/03/07 01:54:35;;;;;;;6.00;3.92;;;;;;;5.99;100.00;99532.16;5068573;28;20507;-69
2023/03/07 01:57:02;;;;;;;5.97;3.72;;;;;;;5.99;100.00;99532.16;5065556;28;20039;-70
2023/03/07 01:59:39;;;;;;;7.38;4.38;;;;;;;6.01;100.00;99526.03;5065449;28;20050;-70
2023/03/07 02:02:10;;;;;;;7.18;4.35;;;;;;;5.96;100.00;99523.84;5068315;28;20451;-70
2023/03/07 02:05:02;;;;;;;8.50;4.07;;;;;;;5.91;100.00;99526.03;5062197;28;20153;-70
2023/03/07 02:07:33;;;;;;;6.82;3.55;;;;;;;5.91;100.00;99519.09;5065463;28;20511;-70
2023/03/07 02:10:00;;;;;;;7.28;4.28;;;;;;;5.90;100.00;99525.22;5062298;28;20252;-70
2023/03/07 02:12:26;;;;;;;9.38;4.28;;;;;;;5.89;100.00;99522.75;5058616;28;20037;-70
2023/03/07 02:14:52;;;;;;;9.43;3.80;;;;;;;5.92;100.00;99523.31;5066485;28;20035;-70
2023/03/07 02:17:18;;;;;;;12.13;4.25;;;;;;;5.95;100.00;99517.06;5064913;28;20032;-70
2023/03/07 02:20:04;;;;;;;8.07;4.22;;;;;;;5.96;100.00;99527.25;5061248;28;20170;-70
2023/03/07 02:22:30;;;;;;;6.95;3.85;;;;;;;5.88;100.00;99521.91;5056009;28;20097;-70
2023/03/07 02:25:18;;;;;;;6.50;4.15;;;;;;;5.82;100.00;99517.28;5065777;28;20033;-70
2023/03/07 02:27:46;;;;;;;6.82;3.03;;;;;;;5.80;100.00;99514.03;5066204;28;20041;-70
2023/03/07 02:30:11;;;;;;;6.72;3.55;;;;;;;5.81;100.00;99514.84;5065300;28;20085;-70
2023/03/07 02:32:37;;;;;;;4.80;3.40;;;;;;;5.84;100.00;99515.38;5054514;28;20037;-70
2023/03/07 02:35:11;;;;;;;8.40;3.75;;;;;;;5.86;100.00;99512.66;5067526;28;20040;-71
2023/03/07 02:37:38;;;;;;;6.68;3.83;;;;;;;5.90;100.00;99503.72;5064698;28;20089;-71
2023/03/07 02:40:07;;;;;;;7.10;3.47;;;;;;;5.89;100.00;99502.91;5065898;28;20115;-71
2023/03/07 02:42:36;;;;;;;6.72;3.90;;;;;;;5.88;100.00;99508.19;5064273;28;20099;-70
2023/03/07 02:45:05;;;;;;;6.82;3.35;;;;;;;5.87;100.00;99509.13;5064429;28;20031;-71
2023/03/07 02:47:31;;;;;;;6.00;3.78;;;;;;;5.81;100.00;99502.75;5062412;28;20028;-71
2023/03/07 02:49:56;;;;;;;5.70;3.25;;;;;;;5.84;100.00;99504.22;5060725;28;20487;-71
2023/03/07 02:52:22;;;;;;;4.57;3.05;;;;;;;5.92;100.00;99497.47;5051360;28;20032;-70
2023/03/07 02:54:47;;;;;;;7.25;3.55;;;;;;;5.99;100.00;99497.72;5063607;28;20453;-71
2023/03/07 02:57:14;;;;;;;5.88;3.40;;;;;;;6.04;100.00;99489.56;5059441;28;20036;-71
2023/03/07 02:59:39;;;;;;;5.80;4.00;;;;;;;6.08;100.00;99493.50;5064442;28;20025;-71
2023/03/07 03:02:05;;;;;;;5.93;3.92;;;;;;;6.11;100.00;99496.63;5064840;28;20033;-71
2023/03/07 03:04:30;;;;;;;6.28;3.13;;;;;;;6.14;100.00;99493.75;5067770;28;20118;-71
2023/03/07 03:06:56;;;;;;;5.82;3.67;;;;;;;6.09;100.00;99493.34;5065268;28;20033;-70
2023/03/07 03:09:22;;;;;;;5.50;4.13;;;;;;;6.07;100.00;99497.03;5065671;28;20476;-71
2023/03/07 03:11:47;;;;;;;5.97;3.45;;;;;;;6.03;100.00;99487.91;5064379;28;20436;-70
2023/03/07 03:14:12;;;;;;;4.57;3.25;;;;;;;6.01;100.00;99490.66;5065701;28;20524;-70
2023/03/07 03:16:39;;;;;;;5.90;3.17;;;;;;;6.03;100.00;99488.75;5064076;28;20035;-70
2023/03/07 03:19:05;;;;;;;6.30;3.78;;;;;;;5.99;100.00;99487.38;5061237;28;20109;-71
2023/03/07 03:21:31;;;;;;;4.75;2.80;;;;;;;5.97;100.00;99491.88;5063142;28;20028;-70
2023/03/07 03:23:56;;;;;;;5.70;2.78;;;;;;;5.95;100.00;99493.78;5062723;28;20412;-70
2023/03/07 03:26:22;;;;;;;5.22;3.10;;;;;;;5.90;100.00;99488.22;5068436;28;20046;-70
2023/03/07 03:28:47;;;;;;;4.32;2.78;;;;;;;5.86;100.00;99482.47;5047081;28;20399;-71
2023/03/07 03:31:14;;;;;;;6.00;3.08;;;;;;;5.83;100.00;99485.31;5065582;28;20028;-70
2023/03/07 03:33:40;;;;;;;3.95;2.80;;;;;;;5.81;100.00;99489.00;5066134;28;20134;-70
2023/03/07 03:36:14;;;;;;;3.88;2.65;;;;;;;5.78;100.00;99499.59;5068502;28;20028;-71
2023/03/07 03:38:40;;;;;;;5.78;3.05;;;;;;;5.79;100.00;99501.25;5068224;28;20037;-70
2023/03/07 03:41:08;;;;;;;4.80;2.88;;;;;;;5.80;100.00;99493.34;5071887;28;20029;-70
2023/03/07 03:43:34;;;;;;;4.43;2.30;;;;;;;5.78;100.00;99499.59;5066065;28;20078;-71
2023/03/07 03:45:59;;;;;;;6.35;2.67;;;;;;;5.73;100.00;99507.78;5066896;28;20065;-71
2023/03/07 03:48:26;;;;;;;3.78;2.63;;;;;;;5.72;100.00;99503.56;5071505;28;20681;-70
2023/03/07 03:51:00;;;;;;;5.03;3.05;;;;;;;5.67;100.00;99503.97;5067029;28;20464;-70
2023/03/07 03:53:25;;;;;;;4.45;3.28;;;;;;;5.64;100.00;99501.69;5064644;28;20078;-70
2023/03/07 03:55:51;;;;;;;5.82;2.75;;;;;;;5.63;100.00;99489.72;5067750;28;20024;-71
2023/03/07 03:58:16;;;;;;;5.60;3.05;;;;;;;5.61;100.00;99493.38;5062800;28;20477;-70
2023/03/07 04:00:43;;;;;;;6.50;2.95;;;;;;;5.59;100.00;99493.53;5064142;28;20051;-71
2023/03/07 04:03:09;;;;;;;7.13;3.72;;;;;;;5.59;100.00;99503.03;5069248;28;20024;-71
2023/03/07 04:05:34;;;;;;;5.70;2.65;;;;;;;5.59;100.00;99495.28;5063488;28;20366;-70
2023/03/07 04:08:00;;;;;;;4.22;2.78;;;;;;;5.57;100.00;99492.03;5066135;28;20052;-70
2023/03/07 04:10:25;;;;;;;5.22;2.67;;;;;;;5.54;100.00;99493.09;5067278;28;20040;-70
2023/03/07 04:12:50;;;;;;;9.68;2.80;;;;;;;5.53;100.00;99486.31;5060523;28;20094;-70
2023/03/07 04:15:16;;;;;;;5.68;3.28;;;;;;;5.54;100.00;99490.53;5068491;28;20059;-70
2023/03/07 04:17:41;;;;;;;8.02;3.20;;;;;;;5.56;100.00;99498.13;5066559;28;20396;-71
2023/03/07 04:20:16;;;;;;;4.28;2.30;;;;;;;5.59;100.00;99503.84;5067989;28;20051;-71
2023/03/07 04:22:41;;;;;;;7.25;3.17;;;;;;;5.61;100.00;99508.88;5068962;28;20126;-71
2023/03/07 04:25:07;;;;;;;5.95;3.10;;;;;;;5.58;100.00;99499.63;5066969;28;20047;-71
2023/03/07 04:27:34;;;;;;;7.25;3.47;;;;;;;5.57;100.00;99503.19;5069243;28;20060;-71
2023/03/07 04:29:59;;;;;;;5.07;2.85;;;;;;;5.58;100.00;99504.00;5040880;28;20024;-71
2023/03/07 04:32:25;;;;;;;5.68;2.83;;;;;;;5.56;100.00;99498.97;5064751;28;20498;-71
2023/03/07 04:34:51;;;;;;;4.60;2.40;;;;;;;5.60;100.00;99502.91;5065922;28;20033;-70
2023/03/07 04:37:16;;;;;;;7.63;2.80;;;;;;;5.59;100.00;99505.63;5069626;28;20028;-71
2023/03/07 04:39:43;;;;;;;6.50;2.42;;;;;;;5.55;100.00;99505.06;5065234;28;20496;-70
2023/03/07 04:42:08;;;;;;;5.90;2.30;;;;;;;5.55;100.00;99505.06;5069625;28;20036;-70
2023/03/07 04:44:33;;;;;;;5.28;2.22;;;;;;;5.56;100.00;99500.72;5068996;28;20415;-71
2023/03/07 04:46:59;;;;;;;5.70;3.00;;;;;;;5.54;100.00;99502.63;5075646;28;20036;-71
2023/03/07 04:49:24;;;;;;;6.50;2.65;;;;;;;5.54;100.00;99498.28;5061681;28;20090;-71
2023/03/07 04:51:50;;;;;;;5.35;2.63;;;;;;;5.58;100.00;99498.81;5068796;28;20396;-70
2023/03/07 04:54:15;;;;;;;5.95;2.38;;;;;;;5.58;100.00;99499.63;5064364;28;20036;-70
2023/03/07 04:56:41;;;;;;;7.32;3.15;;;;;;;5.59;100.00;99511.59;5068192;28;20472;-71
2023/03/07 04:59:06;;;;;;;4.07;2.42;;;;;;;5.64;100.00;99513.78;5067617;28;20040;-70
2023/03/07 05:01:32;;;;;;;6.55;3.00;;;;;;;5.67;100.00;99514.31;5064763;28;20035;-71
2023/03/07 05:03:57;;;;;;;4.78;3.13;;;;;;;5.70;100.00;99522.72;5065690;28;20372;-70
2023/03/07 05:06:23;;;;;;;6.15;2.60;;;;;;;5.66;100.00;99517.88;5067290;28;20028;-70
2023/03/07 05:08:49;;;;;;;4.82;2.22;;;;;;;5.63;100.00;99523.31;5064329;28;20028;-71
2023/03/07 05:11:15;;;;;;;4.07;2.35;;;;;;;5.60;100.00;99521.00;5067025;28;20028;-71
2023/03/07 05:13:40;;;;;;;6.60;2.45;;;;;;;5.59;100.00;99521.94;5049480;28;20029;-70
2023/03/07 05:16:06;;;;;;;3.15;2.30;;;;;;;5.60;100.00;99522.75;5064531;28;20456;-70
2023/03/07 05:18:31;;;;;;;4.38;2.55;;;;;;;5.59;100.00;99527.09;5067764;28;20426;-71
2023/03/07 05:20:57;;;;;;;7.88;2.50;;;;;;;5.58;100.00;99535.81;5065538;28;20028;-70
2023/03/07 05:23:22;;;;;;;3.92;1.92;;;;;;;5.58;100.00;99530.66;5062415;28;20029;-71
2023/03/07 05:25:48;;;;;;;6.68;3.13;;;;;;;5.58;100.00;99535.81;5067430;28;20507;-71
2023/03/07 05:28:15;;;;;;;3.85;2.17;;;;;;;5.59;100.00;99537.44;5066256;28;20098;-71
2023/03/07 05:30:42;;;;;;;3.95;2.88;;;;;;;5.61;100.00;99535.53;5069328;28;20034;-70
2023/03/07 05:33:07;;;;;;;4.55;2.35;;;;;;;5.66;100.00;99537.72;5062570;28;20037;-70
2023/03/07 05:35:33;;;;;;;7.10;2.92;;;;;;;5.67;100.00;99545.31;5066914;28;20126;-71
2023/03/07 05:37:59;;;;;;;5.32;2.85;;;;;;;5.72;100.00;99539.75;5065284;28;20037;-71
2023/03/07 05:40:24;;;;;;;4.55;2.53;;;;;;;5.73;100.00;99530.22;5069685;28;20227;-71
2023/03/07 05:42:49;;;;;;;7.07;3.70;;;;;;;5.73;100.00;99538.78;5065197;28;20032;-71
2023/03/07 05:45:15;;;;;;;5.82;2.95;;;;;;;5.74;100.00;99543.00;5068514;28;20071;-71
2023/03/07 05:47:40;;;;;;;4.57;2.67;;;;;;;5.70;100.00;99533.88;5067959;28;20551;-71
2023/03/07 05:50:07;;;;;;;6.88;3.55;;;;;;;5.65;100.00;99539.50;5068946;28;20111;-70
2023/03/07 05:52:32;;;;;;;5.43;3.05;;;;;;;5.63;100.00;99543.16;5064130;28;20185;-71
2023/03/07 05:54:57;;;;;;;6.25;3.45;;;;;;;5.63;100.00;99536.22;5064532;28;20044;-71
2023/03/07 05:57:23;;;;;;;8.77;3.65;;;;;;;5.66;100.00;99532.56;5069851;28;20118;-71
2023/03/07 05:59:48;;;;;;;10.38;4.15;;;;;;;5.73;100.00;99532.81;5050095;28;20154;-70
2023/03/07 06:02:14;;;;;;;6.70;3.65;;;;;;;5.75;100.00;99536.06;5063015;28;20021;-71
2023/03/07 06:04:39;;;;;;;8.82;4.00;;;;;;;5.76;100.00;99533.34;5070140;28;20039;-71
2023/03/07 06:07:05;;;;;;;4.95;2.97;;;;;;;5.76;100.00;99538.53;5063175;28;20452;-71
2023/03/07 06:09:30;;;;;;;8.25;3.47;;;;;;;5.71;100.00;99543.28;5065137;28;20543;-71
2023/03/07 06:11:56;;;;;;;6.15;3.30;;;;;;;5.71;100.00;99555.38;5062306;28;20086;-71
2023/03/07 06:14:21;;;;;;;6.75;3.58;;;;;;;5.72;100.00;99546.69;5068960;28;20037;-71
2023/03/07 06:16:47;;;;;;;10.70;4.40;;;;;;;5.76;100.00;99553.22;5063284;28;20029;-71
2023/03/07 06:19:12;;;;;;;10.93;4.43;;;;;;;5.81;100.00;99551.03;5061437;28;20036;-71
2023/03/07 06:21:38;;;;;;;8.75;3.90;;;;;;;5.83;100.00;99552.53;5065757;28;20044;-71
2023/03/07 06:24:06;;;;;;;7.93;4.07;;;;;;;5.84;100.00;99561.09;5062937;28;20046;-71
2023/03/07 06:26:32;;;;;;;6.47;3.40;;;;;;;5.79;100.00;99569.25;5067604;28;20460;-71
2023/03/07 06:28:59;;;;;;;5.10;3.03;;;;;;;5.77;100.00;99567.78;5063802;28;20062;-70
2023/03/07 06:31:24;;;;;;;5.97;2.97;;;;;;;5.75;100.00;99574.84;5066063;28;20048;-70
2023/03/07 06:33:50;;;;;;;6.10;3.05;;;;;;;5.76;100.00;99571.31;5064231;28;20108;-70
2023/03/07 06:36:17;;;;;;;4.03;2.75;;;;;;;5.76;100.00;99568.72;5066072;28;20037;-71
2023/03/07 06:38:43;;;;;;;6.90;3.15;;;;;;;5.78;100.00;99572.81;5062302;28;20431;-71
2023/03/07 06:41:09;;;;;;;5.72;3.42;;;;;;;5.77;100.00;99570.34;5069774;28;20052;-71
2023/03/07 06:43:34;;;;;;;7.78;3.15;;;;;;;5.75;100.00;99572.25;5069151;28;20455;-71
2023/03/07 06:46:01;;;;;;;7.70;3.40;;;;;;;5.75;100.00;99574.84;5062247;28;20055;-70
2023/03/07 06:48:26;;;;;;;9.88;3.47;;;;;;;5.75;100.00;99575.66;5072817;28;20150;-71
2023/03/07 06:50:51;;;;;;;6.80;3.10;;;;;;;5.77;100.00;99578.09;5069099;28;20107;-71
2023/03/07 06:53:18;;;;;;;6.57;4.00;;;;;;;5.79;100.00;99582.19;5063110;28;20176;-70
2023/03/07 06:55:48;;;;;;;10.45;4.22;;;;;;;5.79;100.00;99579.59;5056747;28;20578;-70
2023/03/07 06:58:14;;;;;;;8.45;3.53;;;;;;;5.84;100.00;99581.78;5056933;28;20041;-70
2023/03/07 07:00:40;;;;;;;10.43;4.53;;;;;;;5.83;100.00;99580.16;5047297;28;20494;-71
2023/03/07 07:03:08;;;;;;;9.13;4.57;;;;;;;5.88;100.00;99572.81;5040766;28;20029;-70
2023/03/07 07:05:33;;;;;;;10.20;5.07;;;;;;;5.95;100.00;99576.50;5030138;28;20037;-70
2023/03/07 07:07:59;;;;;;;7.32;4.32;;;;;;;6.03;100.00;99579.25;5048760;28;20033;-71
2023/03/07 07:10:24;;;;;;;7.78;4.20;;;;;;;6.06;100.00;99584.13;5051947;28;20135;-71
2023/03/07 07:12:55;;;;;;;8.48;4.03;;;;;;;6.11;100.00;99584.56;5048384;28;20033;-71
2023/03/07 07:15:21;;;;;;;12.90;5.18;;;;;;;6.16;100.00;99584.94;5045077;28;20028;-70
2023/03/07 07:17:46;;;;;;;9.02;5.05;;;;;;;6.19;100.00;99584.66;5044677;28;20048;-71
2023/03/07 07:20:12;;;;;;;9.27;5.45;;;;;;;6.22;100.00;99586.16;5038545;28;20033;-71
2023/03/07 07:22:37;;;;;;;9.18;5.63;;;;;;;6.24;100.00;99585.06;5050291;28;20029;-70
2023/03/07 07:25:03;;;;;;;7.63;4.97;;;;;;;6.32;100.00;99586.97;5048146;28;20049;-71
2023/03/07 07:27:28;;;;;;;10.13;5.00;;;;;;;6.42;100.00;99595.53;5056927;28;20028;-71
2023/03/07 07:29:54;;;;;;;8.27;5.28;;;;;;;6.52;100.00;99598.09;5041759;28;20033;-70
2023/03/07 07:32:19;;;;;;;10.55;6.22;;;;;;;6.67;100.00;99596.69;5044510;28;20041;-70
2023/03/07 07:34:45;;;;;;;7.15;5.03;;;;;;;6.92;100.00;99600.44;5055365;28;20450;-71
2023/03/07 07:37:10;;;;;;;8.10;4.53;;;;;;;6.95;100.00;99595.78;5039533;28;20036;-70
2023/03/07 07:39:39;;;;;;;5.68;4.40;;;;;;;6.90;100.00;99600.56;5053524;28;20126;-70
2023/03/07 07:42:05;;;;;;;8.45;4.30;;;;;;;6.91;100.00;99593.63;5044022;28;20032;-70
2023/03/07 07:44:30;;;;;;;5.50;3.80;;;;;;;6.96;100.00;99602.59;5049078;28;20032;-70
2023/03/07 07:46:56;;;;;;;5.43;3.90;;;;;;;7.08;100.00;99599.81;5048293;28;20596;-70
2023/03/07 07:49:22;;;;;;;11.38;3.95;;;;;;;7.09;100.00;99599.66;5041863;28;20029;-70
2023/03/07 07:51:47;;;;;;;7.45;3.90;;;;;;;7.08;100.00;99610.19;5042855;28;20040;-70
2023/03/07 07:54:13;;;;;;;8.25;4.40;;;;;;;7.06;100.00;99606.91;5038677;28;20034;-69
2023/03/07 07:56:39;;;;;;;6.32;3.75;;;;;;;7.07;100.00;99605.97;5042685;28;20056;-68
2023/03/07 07:59:04;;;;;;;9.07;4.28;;;;;;;7.16;100.00;99602.50;5045682;28;20075;-70
2023/03/07 08:01:30;;;;;;;7.63;3.92;;;;;;;7.24;100.00;99600.00;5055555;28;20036;-70
2023/03/07 08:03:55;;;;;;;6.80;3.80;;;;;;;7.29;100.00;99602.97;5049553;28;20429;-69
2023/03/07 08:06:23;;;;;;;12.98;4.70;;;;;;;7.46;100.00;99604.81;5045993;28;20151;-69
2023/03/07 08:08:48;;;;;;;18.10;9.45;;;;;;;7.54;100.00;99606.66;5051982;28;20123;-70
2023/03/07 08:11:15;;;;;;;15.50;8.30;;;;;;;7.52;100.00;99612.00;5052904;28;20454;-70
2023/03/07 08:13:41;;;;;;;20.92;9.20;;;;;;;7.53;100.00;99598.06;5046616;28;20041;-70
2023/03/07 08:16:14;;;;;;;20.58;8.80;;;;;;;7.56;100.00;99604.75;5048700;28;20104;-69
2023/03/07 08:18:41;;;;;;;26.25;9.52;;;;;;;7.61;100.00;99603.31;5043398;28;20033;-69
2023/03/07 08:21:07;;;;;;;26.77;10.75;;;;;;;7.67;100.00;99601.91;5048703;28;20040;-69
2023/03/07 08:23:34;;;;;;;15.32;7.93;;;;;;;7.72;100.00;99609.25;5045607;28;20473;-69
2023/03/07 08:26:08;;;;;;;13.68;6.15;;;;;;;7.74;100.00;99604.75;5044674;28;20024;-69
2023/03/07 08:28:35;;;;;;;11.25;5.28;;;;;;;7.80;100.00;99601.56;5056835;28;20079;-68
2023/03/07 08:31:13;;;;;;;10.90;5.20;;;;;;;7.78;100.00;99609.50;5047346;28;20551;-68
2023/03/07 08:33:39;;;;;;;11.07;5.47;;;;;;;7.88;100.00;99601.66;5043311;28;20036;-67
2023/03/07 08:36:05;;;;;;;9.48;6.20;;;;;;;7.95;100.00;99602.69;5052458;28;20537;-69
2023/03/07 08:38:31;;;;;;;11.38;6.22;;;;;;;8.09;100.00;99606.53;5059538;28;20040;-68
2023/03/07 08:41:05;;;;;;;9.38;5.32;;;;;;;8.21;100.00;99606.16;5044980;28;20068;-68
2023/03/07 08:43:32;;;;;;;7.57;3.95;;;;;;;8.20;100.00;99598.50;5053660;28;20480;-69
2023/03/07 08:45:58;;;;;;;12.18;4.05;;;;;;;8.18;100.00;99606.44;5052406;28;20029;-69
2023/03/07 08:48:25;;;;;;;9.55;5.00;;;;;;;8.35;100.00;99597.03;5041850;28;20340;-68
2023/03/07 08:50:51;;;;;;;12.48;5.20;;;;;;;8.45;100.00;99599.53;5046389;28;20035;-69
2023/03/07 08:53:16;;;;;;;8.25;4.85;;;;;;;8.61;100.00;99595.25;5049921;28;20506;-69
2023/03/07 08:55:42;;;;;;;11.85;5.85;;;;;;;8.76;100.00;99594.69;5058616;28;20052;-68
2023/03/07 08:58:09;;;;;;;11.27;5.07;;;;;;;8.82;100.00;99589.72;5052463;28;20032;-69
2023/03/07 09:00:35;;;;;;;11.18;4.95;;;;;;;8.87;100.00;99594.44;5051565;28;20108;-69
2023/03/07 09:03:01;;;;;;;14.95;5.63;;;;;;;9.04;100.00;99593.53;5045895;28;20551;-67
2023/03/07 09:05:28;;;;;;;12.48;6.15;;;;;;;9.25;100.00;99590.53;5052359;28;20133;-67
2023/03/07 09:07:53;;;;;;;12.40;5.03;;;;;;;9.50;100.00;99597.44;5047615;28;20022;-67
2023/03/07 09:10:19;;;;;;;11.32;5.97;;;;;;;9.50;100.00;99601.81;5058676;28;20084;-67
2023/03/07 09:12:46;;;;;;;13.77;6.90;;;;;;;9.57;100.00;99598.44;5054152;28;20478;-68
2023/03/07 09:15:11;;;;;;;19.85;6.30;;;;;;;9.55;100.00;99604.75;5047148;28;20139;-67
2023/03/07 09:17:37;;;;;;;23.10;6.30;;;;;;;9.48;100.00;99601.16;5048819;28;20143;-68
2023/03/07 09:20:03;;;;;;;12.63;5.72;;;;;;;9.43;100.00;99596.47;5050142;28;20044;-69
2023/03/07 09:22:29;;;;;;;11.07;5.15;;;;;;;9.49;100.00;99594.97;5045231;28;20025;-69
2023/03/07 09:24:54;;;;;;;11.40;6.43;;;;;;;9.56;100.00;99594.19;5058159;28;20055;-69
2023/03/07 09:27:20;;;;;;;11.05;5.43;;;;;;;9.64;100.00;99596.81;5060287;28;20354;-68
2023/03/07 09:29:46;;;;;;;12.73;5.78;;;;;;;9.69;100.00;99608.53;5059753;28;20041;-69
2023/03/07 09:32:11;;;;;;;9.82;4.95;;;;;;;9.78;100.00;99598.00;5060485;28;20081;-69
2023/03/07 09:34:37;;;;;;;11.05;5.85;;;;;;;9.91;100.00;99600.94;5062133;28;20087;-69
2023/03/07 09:37:04;;;;;;;10.05;6.13;;;;;;;9.85;100.00;99603.38;5061939;28;20055;-68
2023/03/07 09:39:30;;;;;;;15.30;6.95;;;;;;;9.88;100.00;99605.66;5061352;28;20040;-69
2023/03/07 09:42:10;;;;;;;16.15;6.85;;;;;;;9.88;100.00;99611.66;5058100;28;20021;-69
2023/03/07 09:45:02;;;;;;;10.88;6.85;;;;;;;9.74;100.00;99609.69;5054712;28;20029;-69
2023/03/07 09:47:43;;;;;;;15.10;7.90;;;;;;;9.71;100.00;99612.59;5063537;28;20037;-69
2023/03/07 09:50:15;;;;;;;15.55;8.15;;;;;;;9.71;100.00;99617.00;5056751;28;20040;-69
2023/03/07 09:52:42;;;;;;;20.02;9.55;;;;;;;9.71;100.00;99617.00;5058935;28;20373;-69
2023/03/07 09:55:19;;;;;;;19.83;11.18;;;;;;;9.77;100.00;99611.16;5058386;28;20115;-69
2023/03/07 09:57:54;;;;;;;16.77;10.63;;;;;;;9.81;100.00;99615.88;5053371;28;20043;-69
2023/03/07 10:00:32;;;;;;;19.45;11.23;;;;;;;9.78;100.00;99608.41;5048593;28;20034;-69
2023/03/07 10:03:18;;;;;;;20.40;12.15;;;;;;;9.77;100.00;99616.34;5063365;28;20499;-69
2023/03/07 10:05:48;;;;;;;23.75;11.68;;;;;;;9.75;100.00;99613.91;5060414;28;20033;-69
2023/03/07 10:08:16;;;;;;;19.95;12.10;;;;;;;9.74;100.00;99614.06;5064635;28;20067;-69
2023/03/07 10:10:51;;;;;;;21.17;12.93;;;;;;;9.72;100.00;99613.41;5055720;28;20029;-69
2023/03/07 10:13:26;;;;;;;25.17;13.90;;;;;;;9.65;100.00;99616.66;5045337;28;20051;-69
2023/03/07 10:16:03;;;;;;;24.02;14.18;;;;;;;9.58;100.00;99612.25;5063127;28;20033;-68
2023/03/07 10:18:46;;;;;;;26.88;15.02;;;;;;;9.48;100.00;99612.38;5056772;28;20029;-69
2023/03/07 10:21:20;;;;;;;24.42;14.40;;;;;;;9.43;100.00;99617.25;5054457;28;20496;-69
2023/03/07 10:24:01;;;;;;;24.95;15.20;;;;;;;9.35;100.00;99613.81;5059083;28;20048;-69
2023/03/07 10:26:39;;;;;;;28.35;15.63;;;;;;;9.27;100.00;99610.22;5063016;28;20475;-69
2023/03/07 10:29:25;;;;;;;27.00;14.77;;;;;;;9.23;100.00;99613.28;5059736;28;20094;-69
2023/03/07 10:31:55;;;;;;;23.55;14.50;;;;;;;9.25;100.00;99613.94;5061633;28;20033;-69
2023/03/07 10:34:26;;;;;;;22.70;13.82;;;;;;;9.22;100.00;99611.66;5063877;28;20074;-69
2023/03/07 10:37:07;;;;;;;24.85;12.68;;;;;;;9.22;100.00;99622.03;5043016;28;20040;-68
2023/03/07 10:39:40;;;;;;;23.70;12.85;;;;;;;9.19;100.00;99623.16;5053029;28;20025;-69
2023/03/07 10:42:14;;;;;;;23.23;13.20;;;;;;;9.24;100.00;99633.09;5049584;28;20103;-68
2023/03/07 10:44:40;;;;;;;22.67;12.20;;;;;;;9.29;100.00;99628.25;5048363;28;20035;-69
2023/03/07 10:47:16;;;;;;;25.42;13.70;;;;;;;9.38;100.00;99632.50;5063559;28;20547;-68
2023/03/07 10:49:44;;;;;;;;;;;;;;;9.40;100.00;99635.78;5061616;28;20051;-68
2023/03/07 10:52:34;;;;;;;24.98;14.68;;;;;;;9.46;100.00;99629.09;5053118;28;19916;-69
2023/03/07 10:55:33;;;;;;;23.05;13.88;;;;;;;9.54;100.00;99626.53;5054086;28;20135;-69
2023/03/07 10:58:24;;;;;;;26.67;13.60;;;;;;;9.63;100.00;99631.59;5055870;28;20049;-69
2023/03/07 11:01:06;;;;;;;26.27;13.93;;;;;;;9.69;100.00;99631.94;5059423;28;20562;-69
2023/03/07 11:03:32;;;;;;;26.98;13.73;;;;;;;9.84;100.00;99638.16;5059324;28;20116;-69
2023/03/07 11:05:59;;;;;;;25.20;13.68;;;;;;;9.97;100.00;99639.31;5054571;28;20127;-69
2023/03/07 11:08:31;;;;;;;25.65;13.25;;;;;;;10.02;100.00;99630.19;5055582;28;20032;-69
2023/03/07 11:11:01;;;;;;;21.67;12.32;;;;;;;10.11;100.00;99622.25;5055585;28;20059;-69
2023/03/07 11:13:27;;;;;;;23.38;13.43;;;;;;;10.12;100.00;99626.47;5055886;28;20500;-69
2023/03/07 11:16:21;;;;;;;26.15;13.35;;;;;;;10.21;100.00;99625.53;5061022;28;20047;-69
2023/03/07 11:18:47;;;;;;;20.92;14.32;;;;;;;10.13;100.00;99630.69;5058535;28;20029;-69
2023/03/07 11:21:32;;;;;;;23.55;14.90;;;;;;;10.10;100.00;99618.00;5063913;28;20041;-69
2023/03/07 11:24:04;;;;;;;34.25;15.82;;;;;;;10.22;100.00;99618.53;5038851;28;20064;-69
2023/03/07 11:26:36;;;;;;;24.30;15.48;;;;;;;10.23;100.00;99615.78;5049800;28;20518;-70
2023/03/07 11:29:05;;;;;;;26.67;15.18;;;;;;;10.39;100.00;99603.75;5054691;28;20041;-70
2023/03/07 11:31:49;;;;;;;28.38;16.77;;;;;;;10.58;100.00;99609.41;5056075;28;20168;-70
2023/03/07 11:34:26;;;;;;;25.50;17.85;;;;;;;10.61;100.00;99600.44;5061852;28;20037;-69